createdAt,value
2023-10-09T00:00:26.655Z,15.30
2023-10-09T00:02:00.174Z,15.28
2023-10-09T00:03:33.045Z,15.31
2023-10-09T00:05:16.135Z,15.33
2023-10-09T00:06:50.198Z,15.32
2023-10-09T00:08:28.160Z,15.17
2023-10-09T00:10:01.544Z,15.10
2023-10-09T00:11:39.692Z,14.95
2023-10-09T00:13:13.447Z,14.88
2023-10-09T00:14:49.549Z,14.87
2023-10-09T00:16:34.671Z,14.90
2023-10-09T00:18:13.576Z,14.91
2023-10-09T00:19:50.965Z,14.88
2023-10-09T00:21:23.712Z,14.82
2023-10-09T00:22:59.316Z,14.76
2023-10-09T00:24:33.770Z,14.65
2023-10-09T00:26:17.465Z,14.73
2023-10-09T00:27:55.449Z,14.63
2023-10-09T00:29:29.594Z,14.54
2023-10-09T00:31:05.838Z,14.50
2023-10-09T00:32:46.660Z,14.42
2023-10-09T00:34:20.746Z,14.41
2023-10-09T00:35:56.467Z,14.41
2023-10-09T00:37:35.491Z,14.45
2023-10-09T00:39:20.414Z,14.48
2023-10-09T00:41:06.386Z,14.50
2023-10-09T00:42:40.372Z,14.40
2023-10-09T00:44:13.201Z,14.51
2023-10-09T00:45:46.772Z,14.45
2023-10-09T00:47:22.477Z,14.42
2023-10-09T00:49:02.800Z,14.36
2023-10-09T00:50:36.981Z,14.31
2023-10-09T00:52:19.165Z,14.30
2023-10-09T00:53:55.065Z,14.31
2023-10-09T00:55:39.531Z,14.33
2023-10-09T00:57:14.964Z,14.33
2023-10-09T00:58:47.995Z,14.35
2023-10-09T01:00:46.926Z,14.33
2023-10-09T01:02:20.993Z,14.33
2023-10-09T01:03:54.524Z,14.30
2023-10-09T01:05:28.483Z,14.33
2023-10-09T01:07:22.535Z,14.31
2023-10-09T01:09:10.025Z,14.34
2023-10-09T01:10:57.623Z,14.35
2023-10-09T01:12:31.842Z,14.29
2023-10-09T01:14:13.443Z,14.27
2023-10-09T01:15:48.123Z,14.30
2023-10-09T01:17:32.080Z,14.28
2023-10-09T01:19:21.361Z,14.32
2023-10-09T01:20:54.872Z,14.24
2023-10-09T01:22:27.178Z,14.20
2023-10-09T01:24:06.203Z,14.18
2023-10-09T01:25:45.550Z,14.04
2023-10-09T01:27:18.871Z,14.13
2023-10-09T01:28:51.595Z,14.09
2023-10-09T01:30:24.900Z,14.00
2023-10-09T01:32:02.201Z,14.01
2023-10-09T01:33:37.781Z,14.05
2023-10-09T01:35:22.038Z,14.05
2023-10-09T01:36:57.315Z,14.08
2023-10-09T01:38:41.383Z,14.10
2023-10-09T01:40:26.427Z,14.14
2023-10-09T01:41:59.994Z,14.06
2023-10-09T01:43:35.359Z,14.17
2023-10-09T01:45:17.412Z,14.18
2023-10-09T01:46:55.945Z,14.17
2023-10-09T01:48:30.761Z,14.16
2023-10-09T01:50:06.347Z,14.07
2023-10-09T01:51:40.135Z,14.11
2023-10-09T01:53:19.090Z,14.05
2023-10-09T01:54:54.528Z,14.00
2023-10-09T01:56:28.396Z,14.01
2023-10-09T01:58:06.944Z,13.91
2023-10-09T01:59:40.085Z,13.97
2023-10-09T02:01:13.873Z,13.98
2023-10-09T02:02:46.595Z,13.99
2023-10-09T02:04:22.218Z,13.97
2023-10-09T02:06:00.922Z,13.98
2023-10-09T02:07:41.896Z,13.94
2023-10-09T02:09:23.661Z,13.89
2023-10-09T02:10:57.444Z,13.94
2023-10-09T02:12:34.910Z,13.92
2023-10-09T02:14:20.316Z,13.92
2023-10-09T02:15:55.505Z,13.91
2023-10-09T02:17:31.100Z,13.88
2023-10-09T02:19:09.333Z,13.86
2023-10-09T02:20:41.609Z,13.82
2023-10-09T02:22:15.126Z,13.76
2023-10-09T02:23:50.864Z,13.78
2023-10-09T02:25:30.348Z,13.78
2023-10-09T02:27:08.978Z,13.77
2023-10-09T02:28:45.276Z,13.76
2023-10-09T02:30:20.743Z,13.71
2023-10-09T02:32:01.872Z,13.67
2023-10-09T02:33:37.489Z,13.68
2023-10-09T02:35:20.186Z,13.63
2023-10-09T02:36:58.974Z,13.64
2023-10-09T02:38:35.392Z,13.66
2023-10-09T02:40:10.010Z,13.68
2023-10-09T02:41:50.851Z,13.69
2023-10-09T02:43:26.522Z,13.71
2023-10-09T02:45:05.034Z,13.71
2023-10-09T02:46:37.365Z,13.76
2023-10-09T02:48:12.326Z,13.76
2023-10-09T02:49:44.709Z,13.79
2023-10-09T02:51:32.148Z,13.77
2023-10-09T02:53:10.320Z,13.79
2023-10-09T02:54:43.727Z,13.81
2023-10-09T02:56:18.777Z,13.83
2023-10-09T02:57:53.446Z,13.83
2023-10-09T02:59:25.970Z,13.82
2023-10-09T03:01:01.397Z,13.83
2023-10-09T03:02:33.774Z,13.88
2023-10-09T03:04:07.213Z,13.85
2023-10-09T03:05:43.907Z,13.84
2023-10-09T03:07:17.527Z,13.81
2023-10-09T03:08:49.759Z,13.73
2023-10-09T03:10:26.612Z,13.82
2023-10-09T03:12:04.080Z,13.89
2023-10-09T03:13:37.731Z,13.84
2023-10-09T03:15:12.633Z,13.79
2023-10-09T03:16:46.483Z,13.79
2023-10-09T03:18:20.217Z,13.74
2023-10-09T03:19:53.537Z,13.74
2023-10-09T03:21:25.869Z,13.73
2023-10-09T03:22:59.085Z,13.74
2023-10-09T03:24:32.273Z,13.75
2023-10-09T03:26:20.917Z,13.74
2023-10-09T03:27:57.382Z,13.75
2023-10-09T03:29:29.914Z,13.70
2023-10-09T03:31:04.166Z,13.67
2023-10-09T03:32:38.132Z,13.58
2023-10-09T03:34:12.159Z,13.53
2023-10-09T03:35:46.140Z,13.54
2023-10-09T03:37:23.542Z,13.51
2023-10-09T03:38:59.490Z,13.51
2023-10-09T03:40:33.409Z,13.52
2023-10-09T03:42:06.845Z,13.53
2023-10-09T03:43:41.938Z,13.62
2023-10-09T03:45:25.742Z,13.47
2023-10-09T03:46:59.041Z,13.62
2023-10-09T03:48:33.656Z,13.60
2023-10-09T03:50:25.231Z,13.56
2023-10-09T03:52:00.847Z,13.60
2023-10-09T03:53:33.164Z,13.57
2023-10-09T03:55:12.198Z,13.57
2023-10-09T03:56:45.919Z,13.57
2023-10-09T03:58:20.323Z,13.59
2023-10-09T03:59:54.387Z,13.60
2023-10-09T04:01:29.660Z,13.61
2023-10-09T04:03:04.246Z,13.59
2023-10-09T04:04:38.187Z,13.62
2023-10-09T04:06:12.449Z,13.64
2023-10-09T04:07:44.705Z,13.63
2023-10-09T04:09:37.092Z,13.54
2023-10-09T04:11:17.360Z,13.56
2023-10-09T04:12:54.168Z,13.58
2023-10-09T04:14:34.993Z,13.58
2023-10-09T04:16:32.110Z,13.58
2023-10-09T04:18:07.061Z,13.50
2023-10-09T04:19:49.400Z,13.52
2023-10-09T04:21:35.499Z,13.49
2023-10-09T04:23:08.290Z,13.49
2023-10-09T04:24:43.433Z,13.48
2023-10-09T04:26:15.702Z,13.42
2023-10-09T04:27:49.182Z,13.37
2023-10-09T04:29:27.868Z,13.32
2023-10-09T04:31:07.524Z,13.30
2023-10-09T04:32:41.543Z,13.35
2023-10-09T04:34:30.060Z,13.36
2023-10-09T04:36:23.318Z,13.29
2023-10-09T04:38:05.794Z,13.38
2023-10-09T04:39:48.067Z,13.40
2023-10-09T04:41:28.879Z,13.45
2023-10-09T04:43:01.177Z,13.46
2023-10-09T04:44:37.450Z,13.47
2023-10-09T04:46:13.785Z,13.51
2023-10-09T04:47:59.658Z,13.45
2023-10-09T04:49:46.964Z,13.50
2023-10-09T04:51:33.082Z,13.50
2023-10-09T04:53:23.557Z,13.48
2023-10-09T04:55:17.684Z,13.58
2023-10-09T04:56:56.198Z,13.63
2023-10-09T04:58:33.425Z,13.64
2023-10-09T05:00:08.231Z,13.65
2023-10-09T05:01:48.056Z,13.64
2023-10-09T05:03:28.545Z,13.66
2023-10-09T05:05:18.053Z,13.63
2023-10-09T05:06:56.587Z,13.65
2023-10-09T05:08:34.210Z,13.61
2023-10-09T05:10:11.160Z,13.65
2023-10-09T05:11:55.946Z,13.65
2023-10-09T05:13:43.863Z,13.66
2023-10-09T05:15:16.638Z,13.65
2023-10-09T05:16:56.432Z,13.68
2023-10-09T05:18:28.811Z,13.70
2023-10-09T05:20:15.893Z,13.71
2023-10-09T05:21:49.451Z,13.75
2023-10-09T05:23:24.719Z,13.75
2023-10-09T05:24:59.636Z,13.79
2023-10-09T05:26:51.921Z,13.79
2023-10-09T05:28:32.364Z,13.77
2023-10-09T05:30:25.784Z,13.78
2023-10-09T05:32:04.501Z,13.78
2023-10-09T05:33:40.008Z,13.67
2023-10-09T05:35:17.046Z,13.81
2023-10-09T05:36:49.366Z,13.83
2023-10-09T05:38:26.178Z,13.80
2023-10-09T05:40:19.732Z,13.78
2023-10-09T05:42:01.327Z,13.81
2023-10-09T05:43:52.584Z,13.87
2023-10-09T05:45:43.556Z,13.88
2023-10-09T05:47:36.557Z,14.04
2023-10-09T05:49:21.159Z,14.22
2023-10-09T05:51:13.601Z,14.38
2023-10-09T05:53:04.655Z,14.60
2023-10-09T05:54:53.062Z,14.69
2023-10-09T05:56:58.360Z,14.77
2023-10-09T05:58:48.858Z,14.82
2023-10-09T06:00:39.729Z,14.77
2023-10-09T06:02:30.598Z,14.78
2023-10-09T06:04:16.606Z,14.70
2023-10-09T06:06:03.369Z,14.64
2023-10-09T06:08:03.206Z,14.64
2023-10-09T06:09:51.612Z,14.58
2023-10-09T06:11:40.767Z,14.46
2023-10-09T06:13:39.783Z,14.47
2023-10-09T06:15:32.997Z,14.55
2023-10-09T06:17:24.163Z,14.56
2023-10-09T06:19:09.456Z,14.73
2023-10-09T06:21:04.587Z,14.80
2023-10-09T06:22:51.813Z,14.84
2023-10-09T06:24:27.385Z,14.85
2023-10-09T06:26:22.154Z,14.90
2023-10-09T06:27:59.993Z,15.11
2023-10-09T06:29:36.661Z,15.25
2023-10-09T06:31:23.793Z,15.48
2023-10-09T06:33:14.796Z,15.82
2023-10-09T06:34:52.989Z,16.06
2023-10-09T06:36:32.614Z,16.31
2023-10-09T06:38:24.840Z,16.38
2023-10-09T06:40:13.148Z,16.29
2023-10-09T06:41:46.572Z,16.25
2023-10-09T06:43:29.183Z,16.11
2023-10-09T06:45:06.811Z,16.17
2023-10-09T06:46:46.047Z,16.23
2023-10-09T06:48:51.616Z,16.17
2023-10-09T06:50:43.929Z,16.11
2023-10-09T06:52:36.821Z,16.10
2023-10-09T06:54:17.659Z,16.54
2023-10-09T06:55:50.159Z,16.99
2023-10-09T06:57:40.733Z,17.27
2023-10-09T06:59:23.052Z,17.26
2023-10-09T07:01:20.947Z,17.05
2023-10-09T07:02:54.934Z,17.04
2023-10-09T07:04:42.168Z,16.98
2023-10-09T07:06:26.376Z,16.81
2023-10-09T07:08:20.171Z,16.64
2023-10-09T07:10:12.161Z,16.44
2023-10-09T07:12:05.779Z,16.37
2023-10-09T07:13:38.425Z,16.52
2023-10-09T07:15:31.535Z,16.63
2023-10-09T07:17:17.315Z,16.75
2023-10-09T07:18:50.983Z,16.85
2023-10-09T07:22:30.823Z,17.05
2023-10-09T07:24:15.620Z,17.09
2023-10-09T07:25:59.736Z,17.35
2023-10-09T07:27:45.911Z,17.48
2023-10-09T07:29:22.880Z,17.30
2023-10-09T07:30:59.151Z,17.44
2023-10-09T07:32:33.198Z,17.37
2023-10-09T07:34:08.846Z,17.33
2023-10-09T07:35:49.124Z,17.72
2023-10-09T07:37:25.370Z,18.48
2023-10-09T07:39:00.910Z,18.96
2023-10-09T07:40:53.337Z,19.27
2023-10-09T07:42:44.894Z,19.39
2023-10-09T07:44:32.075Z,19.42
2023-10-09T07:46:25.788Z,19.53
2023-10-09T07:48:06.442Z,20.09
2023-10-09T07:49:38.956Z,20.61
2023-10-09T07:51:14.147Z,20.98
2023-10-09T07:52:51.090Z,21.22
2023-10-09T07:54:33.428Z,21.74
2023-10-09T07:56:08.502Z,22.10
2023-10-09T07:57:41.005Z,22.47
2023-10-09T07:59:15.233Z,22.51
2023-10-09T08:01:07.517Z,22.24
2023-10-09T08:02:41.192Z,22.24
2023-10-09T08:04:15.937Z,22.39
2023-10-09T08:05:48.589Z,22.70
2023-10-09T08:08:05.988Z,22.63
2023-10-09T08:09:47.306Z,22.49
2023-10-09T08:12:01.138Z,21.82
2023-10-09T08:13:58.475Z,21.79
2023-10-09T08:15:52.572Z,22.11
2023-10-09T08:17:28.927Z,22.02
2023-10-09T08:19:01.277Z,22.31
2023-10-09T08:20:52.350Z,22.47
2023-10-09T08:22:53.543Z,22.40
2023-10-09T08:24:42.623Z,22.27
2023-10-09T08:26:29.747Z,22.41
2023-10-09T08:28:21.491Z,22.57
2023-10-09T08:30:13.772Z,22.69
2023-10-09T08:31:58.318Z,23.06
2023-10-09T08:35:31.106Z,23.62
2023-10-09T08:37:05.891Z,23.87
2023-10-09T08:38:39.657Z,23.69
2023-10-09T08:40:19.481Z,22.68
2023-10-09T08:41:53.310Z,22.30
2023-10-09T08:43:25.714Z,21.80
2023-10-09T08:45:01.602Z,21.50
2023-10-09T08:46:38.341Z,20.88
2023-10-09T08:48:16.692Z,20.59
2023-10-09T08:49:50.558Z,20.26
2023-10-09T08:52:58.847Z,19.87
2023-10-09T08:54:34.592Z,19.90
2023-10-09T08:56:09.018Z,20.15
2023-10-09T08:57:42.374Z,20.46
2023-10-09T08:59:16.090Z,20.80
2023-10-09T09:00:49.395Z,20.62
2023-10-09T09:02:22.849Z,20.64
2023-10-09T09:03:57.033Z,20.72
2023-10-09T09:05:30.831Z,20.55
2023-10-09T09:07:03.436Z,20.61
2023-10-09T09:08:37.960Z,20.43
2023-10-09T09:10:18.911Z,20.67
2023-10-09T09:11:54.040Z,20.89
2023-10-09T09:13:32.934Z,20.90
2023-10-09T09:15:19.903Z,20.79
2023-10-09T09:16:53.690Z,20.44
2023-10-09T09:18:32.426Z,20.37
2023-10-09T09:20:24.157Z,20.14
2023-10-09T09:22:00.608Z,20.04
2023-10-09T09:23:33.961Z,20.05
2023-10-09T09:25:10.823Z,19.91
2023-10-09T09:26:47.223Z,20.12
2023-10-09T09:28:22.872Z,20.15
2023-10-09T09:29:55.622Z,20.11
2023-10-09T09:31:29.016Z,20.26
2023-10-09T09:33:21.931Z,20.20
2023-10-09T09:34:57.002Z,20.24
2023-10-09T09:36:30.666Z,20.23
2023-10-09T09:38:07.240Z,20.19
2023-10-09T09:39:52.936Z,20.09
2023-10-09T09:41:29.177Z,19.75
2023-10-09T09:43:05.978Z,19.78
2023-10-09T09:44:46.062Z,19.61
2023-10-09T09:46:21.721Z,19.58
2023-10-09T09:47:59.683Z,19.57
2023-10-09T09:49:33.050Z,19.73
2023-10-09T09:51:07.427Z,19.70
2023-10-09T09:52:40.661Z,19.69
2023-10-09T09:54:16.894Z,19.57
2023-10-09T09:55:59.593Z,19.48
2023-10-09T09:57:40.792Z,19.50
2023-10-09T09:59:22.704Z,19.52
2023-10-09T10:01:03.164Z,19.67
2023-10-09T10:02:39.973Z,19.62
2023-10-09T10:04:21.747Z,19.78
2023-10-09T10:05:59.539Z,19.92
2023-10-09T10:07:44.490Z,20.03
2023-10-09T10:09:40.073Z,19.96
2023-10-09T10:11:45.967Z,19.96
2023-10-09T10:13:25.286Z,19.94
2023-10-09T10:15:00.973Z,19.94
2023-10-09T10:17:07.645Z,20.07
2023-10-09T10:19:00.958Z,20.22
2023-10-09T10:20:33.826Z,20.42
2023-10-09T10:22:28.669Z,20.36
2023-10-09T10:24:07.083Z,20.38
2023-10-09T10:25:44.125Z,20.33
2023-10-09T10:27:25.269Z,20.33
2023-10-09T10:29:24.766Z,20.34
2023-10-09T10:31:00.941Z,20.32
2023-10-09T10:32:56.082Z,20.23
2023-10-09T10:34:51.227Z,20.23
2023-10-09T10:36:26.356Z,20.29
2023-10-09T10:38:12.658Z,20.37
2023-10-09T10:39:52.726Z,20.40
2023-10-09T10:41:25.132Z,20.52
2023-10-09T10:43:10.918Z,20.45
2023-10-09T10:44:46.177Z,20.40
2023-10-09T10:46:26.062Z,20.38
2023-10-09T10:48:07.934Z,20.28
2023-10-09T10:49:45.051Z,20.31
2023-10-09T10:51:23.189Z,20.33
2023-10-09T10:53:15.236Z,20.40
2023-10-09T10:54:47.615Z,20.49
2023-10-09T10:56:20.199Z,20.42
2023-10-09T10:57:56.975Z,20.33
2023-10-09T10:59:37.962Z,20.22
2023-10-09T11:01:14.885Z,20.36
2023-10-09T11:02:49.524Z,20.43
2023-10-09T11:04:40.277Z,20.40
2023-10-09T11:06:15.556Z,20.50
2023-10-09T11:07:54.139Z,20.44
2023-10-09T11:09:50.362Z,20.38
2023-10-09T11:11:33.327Z,20.24
2023-10-09T11:13:24.020Z,20.24
2023-10-09T11:15:08.969Z,20.21
2023-10-09T11:16:43.421Z,20.28
2023-10-09T11:18:20.897Z,20.34
2023-10-09T11:19:55.841Z,20.28
2023-10-09T11:21:41.679Z,20.25
2023-10-09T11:23:17.961Z,20.25
2023-10-09T11:25:12.907Z,20.28
2023-10-09T11:26:55.313Z,20.26
2023-10-09T11:28:31.381Z,20.22
2023-10-09T11:30:22.959Z,20.18
2023-10-09T11:32:02.539Z,20.29
2023-10-09T11:33:50.136Z,20.35
2023-10-09T11:35:29.630Z,20.47
2023-10-09T11:37:14.507Z,20.49
2023-10-09T11:38:47.228Z,20.48
2023-10-09T11:40:34.131Z,20.44
2023-10-09T11:42:08.863Z,20.40
2023-10-09T11:43:55.034Z,20.35
2023-10-09T11:45:31.270Z,20.40
2023-10-09T11:47:24.039Z,20.51
2023-10-09T11:49:26.829Z,20.44
2023-10-09T11:51:20.188Z,20.39
2023-10-09T11:53:34.230Z,20.48
2023-10-09T11:55:12.192Z,20.49
2023-10-09T11:56:44.674Z,20.46
2023-10-09T11:58:23.937Z,20.43
2023-10-09T11:59:57.266Z,20.44
2023-10-09T12:01:36.818Z,20.53
2023-10-09T12:03:10.455Z,20.70
2023-10-09T12:04:46.752Z,20.79
2023-10-09T12:06:24.144Z,20.73
2023-10-09T12:07:58.764Z,20.72
2023-10-09T12:09:31.176Z,20.73
2023-10-09T12:11:10.632Z,20.62
2023-10-09T12:12:47.830Z,20.74
2023-10-09T12:14:24.988Z,20.78
2023-10-09T12:15:59.092Z,20.78
2023-10-09T12:17:32.598Z,20.74
2023-10-09T12:19:10.566Z,20.70
2023-10-09T12:20:51.260Z,20.72
2023-10-09T12:22:28.704Z,20.80
2023-10-09T12:24:02.924Z,20.86
2023-10-09T12:25:36.690Z,20.86
2023-10-09T12:27:12.577Z,20.90
2023-10-09T12:28:47.733Z,20.87
2023-10-09T12:30:27.923Z,20.85
2023-10-09T12:32:01.399Z,20.78
2023-10-09T12:33:40.889Z,20.89
2023-10-09T12:35:18.469Z,20.93
2023-10-09T12:36:52.329Z,20.94
2023-10-09T12:38:33.097Z,21.01
2023-10-09T12:40:11.771Z,20.99
2023-10-09T12:41:44.075Z,21.03
2023-10-09T12:43:18.203Z,21.07
2023-10-09T12:44:52.996Z,21.06
2023-10-09T12:46:26.958Z,21.03
2023-10-09T12:48:04.298Z,21.13
2023-10-09T12:49:39.627Z,21.14
2023-10-09T12:51:17.443Z,21.16
2023-10-09T12:52:51.956Z,21.24
2023-10-09T12:54:29.469Z,21.24
2023-10-09T12:56:02.785Z,21.33
2023-10-09T12:57:35.298Z,21.35
2023-10-09T12:59:09.084Z,21.33
2023-10-09T13:00:45.618Z,21.33
2023-10-09T13:02:30.065Z,21.24
2023-10-09T13:04:02.772Z,21.36
2023-10-09T13:05:36.063Z,21.34
2023-10-09T13:07:09.521Z,21.33
2023-10-09T13:08:42.154Z,21.26
2023-10-09T13:10:17.425Z,21.24
2023-10-09T13:11:51.730Z,21.21
2023-10-09T13:13:24.962Z,21.18
2023-10-09T13:14:57.105Z,21.27
2023-10-09T13:16:30.598Z,21.26
2023-10-09T13:18:03.016Z,21.29
2023-10-09T13:19:36.240Z,21.26
2023-10-09T13:21:08.664Z,21.28
2023-10-09T13:22:42.361Z,21.20
2023-10-09T13:24:17.247Z,21.16
2023-10-09T13:25:51.009Z,21.18
2023-10-09T13:27:24.451Z,21.18
2023-10-09T13:28:58.139Z,21.14
2023-10-09T13:30:31.869Z,21.12
2023-10-09T13:32:14.760Z,21.10
2023-10-09T13:33:47.332Z,21.14
2023-10-09T13:35:21.298Z,21.16
2023-10-09T13:36:54.690Z,21.14
2023-10-09T13:38:28.036Z,21.18
2023-10-09T13:40:09.937Z,21.16
2023-10-09T13:41:43.695Z,21.14
2023-10-09T13:43:18.283Z,21.12
2023-10-09T13:44:54.908Z,21.13
2023-10-09T13:46:28.223Z,21.20
2023-10-09T13:48:04.011Z,21.13
2023-10-09T13:49:43.287Z,21.08
2023-10-09T13:51:18.967Z,21.06
2023-10-09T13:52:55.501Z,21.10
2023-10-09T13:54:40.844Z,21.12
2023-10-09T13:56:19.608Z,21.06
2023-10-09T13:57:58.702Z,20.98
2023-10-09T13:59:31.206Z,21.06
2023-10-09T14:01:09.677Z,21.06
2023-10-09T14:02:42.252Z,21.01
2023-10-09T14:04:19.686Z,20.92
2023-10-09T14:05:58.238Z,20.86
2023-10-09T14:07:36.219Z,20.68
2023-10-09T14:09:10.911Z,20.69
2023-10-09T14:10:43.241Z,20.73
2023-10-09T14:12:20.471Z,20.79
2023-10-09T14:14:06.130Z,20.91
2023-10-09T14:15:47.285Z,20.93
2023-10-09T14:17:24.767Z,20.95
2023-10-09T14:19:00.556Z,20.86
2023-10-09T14:20:33.162Z,20.92
2023-10-09T14:22:06.651Z,20.94
2023-10-09T14:23:38.822Z,20.98
2023-10-09T14:25:16.907Z,21.06
2023-10-09T14:26:53.309Z,21.09
2023-10-09T14:28:30.193Z,21.09
2023-10-09T14:30:13.816Z,21.15
2023-10-09T14:31:50.841Z,21.15
2023-10-09T14:33:24.895Z,21.12
2023-10-09T14:35:02.549Z,21.10
2023-10-09T14:36:35.028Z,21.12
2023-10-09T14:38:12.854Z,21.08
2023-10-09T14:39:49.512Z,21.01
2023-10-09T14:41:24.514Z,21.03
2023-10-09T14:42:59.199Z,20.95
2023-10-09T14:44:32.645Z,20.99
2023-10-09T14:46:12.027Z,20.99
2023-10-09T14:47:48.158Z,20.79
2023-10-09T14:49:22.707Z,20.90
2023-10-09T14:50:59.274Z,20.84
2023-10-09T14:52:32.839Z,20.76
2023-10-09T14:54:09.000Z,20.74
2023-10-09T14:55:46.634Z,20.72
2023-10-09T14:57:19.989Z,20.64
2023-10-09T14:58:52.640Z,20.59
2023-10-09T15:00:27.717Z,20.58
2023-10-09T15:02:02.889Z,20.56
2023-10-09T15:03:39.012Z,20.49
2023-10-09T15:05:13.137Z,20.50
2023-10-09T15:06:49.625Z,20.48
2023-10-09T15:08:22.054Z,20.48
2023-10-09T15:10:05.151Z,20.42
2023-10-09T15:11:42.825Z,20.40
2023-10-09T15:13:15.171Z,20.32
2023-10-09T15:14:48.343Z,20.24
2023-10-09T15:16:22.950Z,20.25
2023-10-09T15:17:57.721Z,20.26
2023-10-09T15:19:32.031Z,20.20
2023-10-09T15:21:04.969Z,20.12
2023-10-09T15:22:39.071Z,20.00
2023-10-09T15:24:16.241Z,19.88
2023-10-09T15:25:53.149Z,19.80
2023-10-09T15:27:27.009Z,19.71
2023-10-09T15:29:04.853Z,19.63
2023-10-09T15:30:42.272Z,19.54
2023-10-09T15:32:23.772Z,19.37
2023-10-09T15:33:58.876Z,19.37
2023-10-09T15:35:35.034Z,19.32
2023-10-09T15:37:08.673Z,19.23
2023-10-09T15:38:42.318Z,19.20
2023-10-09T15:40:15.719Z,19.13
2023-10-09T15:41:50.172Z,19.07
2023-10-09T15:43:22.358Z,19.04
2023-10-09T15:44:55.989Z,19.00
2023-10-09T15:46:34.772Z,18.95
2023-10-09T15:48:07.961Z,18.89
2023-10-09T15:49:45.149Z,18.84
2023-10-09T15:51:18.127Z,18.79
2023-10-09T15:52:53.223Z,18.71
2023-10-09T15:54:28.610Z,18.64
2023-10-09T15:56:02.470Z,18.57
2023-10-09T15:57:36.102Z,18.52
2023-10-09T15:59:08.607Z,18.49
2023-10-09T16:00:42.381Z,18.47
2023-10-09T16:02:16.506Z,18.42
2023-10-09T16:03:51.248Z,18.40
2023-10-09T16:05:27.167Z,18.33
2023-10-09T16:07:00.927Z,18.36
2023-10-09T16:08:33.253Z,18.33
2023-10-09T16:10:09.435Z,18.30
2023-10-09T16:11:41.727Z,18.25
2023-10-09T16:13:15.350Z,18.22
2023-10-09T16:14:47.558Z,18.19
2023-10-09T16:16:27.473Z,18.09
2023-10-09T16:18:04.492Z,18.10
2023-10-09T16:19:38.456Z,18.02
2023-10-09T16:21:13.739Z,17.88
2023-10-09T16:22:46.946Z,17.82
2023-10-09T16:24:20.816Z,17.73
2023-10-09T16:25:53.872Z,17.66
2023-10-09T16:27:28.761Z,17.59
2023-10-09T16:29:01.324Z,17.51
2023-10-09T16:30:34.672Z,17.45
2023-10-09T16:32:08.711Z,17.42
2023-10-09T16:33:42.341Z,17.36
2023-10-09T16:35:14.922Z,17.32
2023-10-09T16:36:49.562Z,17.26
2023-10-09T16:38:23.840Z,17.29
2023-10-09T16:39:59.416Z,17.25
2023-10-09T16:41:41.186Z,17.20
2023-10-09T16:43:15.718Z,17.14
2023-10-09T16:44:49.066Z,17.04
2023-10-09T16:46:23.255Z,16.99
2023-10-09T16:48:00.292Z,16.91
2023-10-09T16:49:33.184Z,16.83
2023-10-09T16:51:09.857Z,16.70
2023-10-09T16:52:44.364Z,16.62
2023-10-09T16:54:17.995Z,16.52
2023-10-09T16:55:50.765Z,16.39
2023-10-09T16:57:24.960Z,16.30
2023-10-09T16:58:58.200Z,16.22
2023-10-09T17:00:31.033Z,16.12
2023-10-09T17:02:08.466Z,16.01
2023-10-09T17:03:44.178Z,16.00
2023-10-09T17:05:29.326Z,15.94
2023-10-09T17:07:06.170Z,15.78
2023-10-09T17:08:43.656Z,15.64
2023-10-09T17:10:18.393Z,15.53
2023-10-09T17:11:53.300Z,15.45
2023-10-09T17:13:27.630Z,15.36
2023-10-09T17:14:59.893Z,15.21
2023-10-09T17:16:33.464Z,15.23
2023-10-09T17:18:08.213Z,15.20
2023-10-09T17:19:44.161Z,15.10
2023-10-09T17:21:17.109Z,15.02
2023-10-09T17:22:51.096Z,15.00
2023-10-09T17:24:24.718Z,14.97
2023-10-09T17:25:59.946Z,14.98
2023-10-09T17:27:32.249Z,15.00
2023-10-09T17:29:05.795Z,14.99
2023-10-09T17:30:38.240Z,14.96
2023-10-09T17:32:13.394Z,14.92
2023-10-09T17:33:45.739Z,14.81
2023-10-09T17:35:19.078Z,14.77
2023-10-09T17:36:51.474Z,14.75
2023-10-09T17:38:24.940Z,14.66
2023-10-09T17:39:59.862Z,14.60
2023-10-09T17:41:36.419Z,14.56
2023-10-09T17:43:08.682Z,14.47
2023-10-09T17:44:42.033Z,14.48
2023-10-09T17:46:14.213Z,14.45
2023-10-09T17:47:50.980Z,14.40
2023-10-09T17:49:26.627Z,14.34
2023-10-09T17:50:59.150Z,14.19
2023-10-09T17:52:34.625Z,14.02
2023-10-09T17:54:10.583Z,13.94
2023-10-09T17:55:45.517Z,13.86
2023-10-09T17:57:18.868Z,13.83
2023-10-09T17:58:51.670Z,13.76
2023-10-09T18:00:24.931Z,13.71
2023-10-09T18:01:58.792Z,13.60
2023-10-09T18:03:31.866Z,13.55
2023-10-09T18:05:05.717Z,13.56
2023-10-09T18:06:40.859Z,13.54
2023-10-09T18:08:15.980Z,13.46
2023-10-09T18:09:53.342Z,13.44
2023-10-09T18:11:27.968Z,13.41
2023-10-09T18:13:00.713Z,13.43
2023-10-09T18:14:35.484Z,13.43
2023-10-09T18:16:09.789Z,13.39
2023-10-09T18:17:45.502Z,13.29
2023-10-09T18:19:21.644Z,13.11
2023-10-09T18:20:54.640Z,13.06
2023-10-09T18:22:30.001Z,13.08
2023-10-09T18:24:06.703Z,13.11
2023-10-09T18:25:41.631Z,13.05
2023-10-09T18:27:15.594Z,13.03
2023-10-09T18:28:49.550Z,12.97
2023-10-09T18:30:27.357Z,12.97
2023-10-09T18:32:01.752Z,12.95
2023-10-09T18:33:35.384Z,12.90
2023-10-09T18:35:10.762Z,12.80
2023-10-09T18:36:43.001Z,12.76
2023-10-09T18:38:17.579Z,12.71
2023-10-09T18:39:50.775Z,12.76
2023-10-09T18:41:25.346Z,12.79
2023-10-09T18:42:59.133Z,12.81
2023-10-09T18:44:32.498Z,12.79
2023-10-09T18:46:06.180Z,12.75
2023-10-09T18:47:40.458Z,12.79
2023-10-09T18:49:13.230Z,12.82
2023-10-09T18:50:46.632Z,12.79
2023-10-09T18:52:19.177Z,12.65
2023-10-09T18:53:53.500Z,12.70
2023-10-09T18:55:27.904Z,12.60
2023-10-09T18:57:01.470Z,12.45
2023-10-09T18:58:35.070Z,12.36
2023-10-09T19:00:12.417Z,12.29
2023-10-09T19:01:48.617Z,12.27
2023-10-09T19:03:22.129Z,12.27
2023-10-09T19:04:54.465Z,12.24
2023-10-09T19:06:29.700Z,12.21
2023-10-09T19:08:01.955Z,12.23
2023-10-09T19:09:36.494Z,12.22
2023-10-09T19:11:10.967Z,12.16
2023-10-09T19:12:44.668Z,12.28
2023-10-09T19:14:19.377Z,12.33
2023-10-09T19:15:52.770Z,12.40
2023-10-09T19:17:25.754Z,12.39
2023-10-09T19:19:05.809Z,12.38
2023-10-09T19:20:39.745Z,12.43
2023-10-09T19:22:14.983Z,12.50
2023-10-09T19:23:47.744Z,12.53
2023-10-09T19:25:28.349Z,12.48
2023-10-09T19:27:03.115Z,12.43
2023-10-09T19:28:39.196Z,12.45
2023-10-09T19:30:18.351Z,12.47
2023-10-09T19:31:52.225Z,12.46
2023-10-09T19:33:24.592Z,12.46
2023-10-09T19:34:58.087Z,12.42
2023-10-09T19:36:30.528Z,12.38
2023-10-09T19:38:04.242Z,12.37
2023-10-09T19:39:36.492Z,12.40
2023-10-09T19:41:12.779Z,12.40
2023-10-09T19:42:47.576Z,12.38
2023-10-09T19:44:19.914Z,12.35
2023-10-09T19:45:54.586Z,12.36
2023-10-09T19:47:26.952Z,12.36
2023-10-09T19:49:00.231Z,12.29
2023-10-09T19:50:32.805Z,12.28
2023-10-09T19:52:06.648Z,12.31
2023-10-09T19:53:38.802Z,12.23
2023-10-09T19:55:12.138Z,12.22
2023-10-09T19:56:46.666Z,12.16
2023-10-09T19:58:19.963Z,12.17
2023-10-09T19:59:56.035Z,12.12
2023-10-09T20:01:30.938Z,12.07
2023-10-09T20:03:03.522Z,12.06
2023-10-09T20:04:38.092Z,12.12
2023-10-09T20:06:11.203Z,12.19
2023-10-09T20:07:44.545Z,12.22
2023-10-09T20:09:18.472Z,12.28
2023-10-09T20:10:51.955Z,12.31
2023-10-09T20:12:24.400Z,12.29
2023-10-09T20:13:58.034Z,12.33
2023-10-09T20:15:32.094Z,12.35
2023-10-09T20:17:06.691Z,12.34
2023-10-09T20:18:43.775Z,12.32
2023-10-09T20:20:17.585Z,12.31
2023-10-09T20:21:51.002Z,12.25
2023-10-09T20:23:24.850Z,12.24
2023-10-09T20:24:59.144Z,12.24
2023-10-09T20:26:31.489Z,12.25
2023-10-09T20:28:05.191Z,12.25
2023-10-09T20:29:39.285Z,12.24
2023-10-09T20:31:13.425Z,12.30
2023-10-09T20:32:48.109Z,12.35
2023-10-09T20:34:21.503Z,12.32
2023-10-09T20:35:57.363Z,12.26
2023-10-09T20:37:30.971Z,12.22
2023-10-09T20:39:03.217Z,12.22
2023-10-09T20:40:36.674Z,12.27
2023-10-09T20:42:08.894Z,12.31
2023-10-09T20:43:42.320Z,12.26
2023-10-09T20:45:16.300Z,12.22
2023-10-09T20:46:49.722Z,12.23
2023-10-09T20:48:23.404Z,12.22
2023-10-09T20:49:58.144Z,12.24
2023-10-09T20:51:36.737Z,12.23
2023-10-09T20:53:16.045Z,12.12
2023-10-09T20:54:49.251Z,12.07
2023-10-09T20:56:23.624Z,12.11
2023-10-09T20:57:58.051Z,12.11
2023-10-09T20:59:34.218Z,12.15
2023-10-09T21:01:15.805Z,12.17
2023-10-09T21:02:50.401Z,12.18
2023-10-09T21:04:25.223Z,12.23
2023-10-09T21:06:00.214Z,12.27
2023-10-09T21:07:33.442Z,12.29